sensor_id;sensor_type;location;lat;lon;timestamp;temperature;humidity
74081;SHT31;62438;52.228;6.864;2022-12-16T00:01:50;-2.45;89.03
74081;SHT31;62438;52.228;6.864;2022-12-16T00:03:55;-2.41;88.47
74081;SHT31;62438;52.228;6.864;2022-12-16T00:05:55;-2.47;89.11
74081;SHT31;62438;52.228;6.864;2022-12-16T00:07:56;-2.42;88.65
74081;SHT31;62438;52.228;6.864;2022-12-16T00:09:57;-2.40;88.58
74081;SHT31;62438;52.228;6.864;2022-12-16T00:11:57;-2.31;88.27
74081;SHT31;62438;52.228;6.864;2022-12-16T00:13:58;-2.24;87.80
74081;SHT31;62438;52.228;6.864;2022-12-16T00:15:59;-2.20;88.00
74081;SHT31;62438;52.228;6.864;2022-12-16T00:18:03;-2.20;89.13
74081;SHT31;62438;52.228;6.864;2022-12-16T00:20:04;-2.14;88.26
74081;SHT31;62438;52.228;6.864;2022-12-16T00:22:05;-2.14;87.77
74081;SHT31;62438;52.228;6.864;2022-12-16T00:24:06;-2.14;87.77
74081;SHT31;62438;52.228;6.864;2022-12-16T00:26:10;-2.14;87.64
74081;SHT31;62438;52.228;6.864;2022-12-16T00:28:12;-2.07;87.65
74081;SHT31;62438;52.228;6.864;2022-12-16T00:30:16;-2.07;88.35
74081;SHT31;62438;52.228;6.864;2022-12-16T00:32:17;-2.07;88.65
74081;SHT31;62438;52.228;6.864;2022-12-16T00:34:17;-2.10;89.27
74081;SHT31;62438;52.228;6.864;2022-12-16T00:36:18;-2.04;89.02
74081;SHT31;62438;52.228;6.864;2022-12-16T00:38:19;-1.96;88.50
74081;SHT31;62438;52.228;6.864;2022-12-16T00:40:20;-1.94;87.52
74081;SHT31;62438;52.228;6.864;2022-12-16T00:42:23;-1.93;87.90
74081;SHT31;62438;52.228;6.864;2022-12-16T00:44:24;-1.93;87.84
74081;SHT31;62438;52.228;6.864;2022-12-16T00:46:24;-1.86;87.60
74081;SHT31;62438;52.228;6.864;2022-12-16T00:48:25;-1.86;88.22
74081;SHT31;62438;52.228;6.864;2022-12-16T00:50:25;-1.79;87.74
74081;SHT31;62438;52.228;6.864;2022-12-16T00:52:26;-1.86;88.17
74081;SHT31;62438;52.228;6.864;2022-12-16T00:54:27;-1.83;88.19
74081;SHT31;62438;52.228;6.864;2022-12-16T00:56:27;-1.80;88.32
74081;SHT31;62438;52.228;6.864;2022-12-16T00:58:28;-1.82;88.54
74081;SHT31;62438;52.228;6.864;2022-12-16T01:00:28;-1.86;88.76
74081;SHT31;62438;52.228;6.864;2022-12-16T01:02:30;-1.80;88.72
74081;SHT31;62438;52.228;6.864;2022-12-16T01:04:30;-1.80;88.86
74081;SHT31;62438;52.228;6.864;2022-12-16T01:06:31;-1.83;89.27
74081;SHT31;62438;52.228;6.864;2022-12-16T01:08:32;-1.79;89.07
74081;SHT31;62438;52.228;6.864;2022-12-16T01:10:32;-1.79;89.09
74081;SHT31;62438;52.228;6.864;2022-12-16T01:12:33;-1.79;89.73
74081;SHT31;62438;52.228;6.864;2022-12-16T01:14:34;-1.83;90.01
74081;SHT31;62438;52.228;6.864;2022-12-16T01:16:35;-1.82;90.25
74081;SHT31;62438;52.228;6.864;2022-12-16T01:18:36;-1.80;90.22
74081;SHT31;62438;52.228;6.864;2022-12-16T01:20:36;-1.77;89.72
74081;SHT31;62438;52.228;6.864;2022-12-16T01:22:40;-1.79;90.32
74081;SHT31;62438;52.228;6.864;2022-12-16T01:24:43;-1.75;90.01
74081;SHT31;62438;52.228;6.864;2022-12-16T01:26:45;-1.73;90.55
74081;SHT31;62438;52.228;6.864;2022-12-16T01:28:46;-1.72;90.93
74081;SHT31;62438;52.228;6.864;2022-12-16T01:30:47;-1.76;91.62
74081;SHT31;62438;52.228;6.864;2022-12-16T01:32:48;-1.82;91.61
74081;SHT31;62438;52.228;6.864;2022-12-16T01:34:53;-1.80;92.09
74081;SHT31;62438;52.228;6.864;2022-12-16T01:36:53;-1.79;92.07
74081;SHT31;62438;52.228;6.864;2022-12-16T01:38:54;-1.76;92.10
74081;SHT31;62438;52.228;6.864;2022-12-16T01:40:54;-1.73;92.53
74081;SHT31;62438;52.228;6.864;2022-12-16T01:42:55;-1.76;92.59
74081;SHT31;62438;52.228;6.864;2022-12-16T01:47:29;-1.75;92.46
74081;SHT31;62438;52.228;6.864;2022-12-16T01:49:40;-1.75;91.94
74081;SHT31;62438;52.228;6.864;2022-12-16T01:51:43;-1.77;91.92
74081;SHT31;62438;52.228;6.864;2022-12-16T01:53:44;-1.62;92.37
74081;SHT31;62438;52.228;6.864;2022-12-16T01:55:47;-1.75;92.09
74081;SHT31;62438;52.228;6.864;2022-12-16T01:57:57;-1.76;92.66
74081;SHT31;62438;52.228;6.864;2022-12-16T02:00:00;-1.76;93.00
74081;SHT31;62438;52.228;6.864;2022-12-16T02:02:02;-1.72;92.84
74081;SHT31;62438;52.228;6.864;2022-12-16T02:04:03;-1.73;93.81
74081;SHT31;62438;52.228;6.864;2022-12-16T02:06:05;-1.76;94.16
74081;SHT31;62438;52.228;6.864;2022-12-16T02:10:09;-1.76;95.01
74081;SHT31;62438;52.228;6.864;2022-12-16T02:12:58;-1.82;95.32
74081;SHT31;62438;52.228;6.864;2022-12-16T02:15:13;-1.89;95.69
74081;SHT31;62438;52.228;6.864;2022-12-16T02:21:46;-1.82;96.73
74081;SHT31;62438;52.228;6.864;2022-12-16T02:26:28;-1.86;96.61
74081;SHT31;62438;52.228;6.864;2022-12-16T02:31:20;-1.80;96.28
74081;SHT31;62438;52.228;6.864;2022-12-16T02:33:50;-1.80;96.24
74081;SHT31;62438;52.228;6.864;2022-12-16T02:36:25;-1.83;96.32
74081;SHT31;62438;52.228;6.864;2022-12-16T02:40:45;-1.85;96.18
74081;SHT31;62438;52.228;6.864;2022-12-16T02:43:00;-1.85;96.60
74081;SHT31;62438;52.228;6.864;2022-12-16T02:45:10;-1.80;96.44
74081;SHT31;62438;52.228;6.864;2022-12-16T02:47:13;-1.83;96.95
74081;SHT31;62438;52.228;6.864;2022-12-16T02:51:15;-1.70;96.60
74081;SHT31;62438;52.228;6.864;2022-12-16T02:53:19;-1.75;96.50
74081;SHT31;62438;52.228;6.864;2022-12-16T02:55:29;-1.83;96.67
74081;SHT31;62438;52.228;6.864;2022-12-16T02:58:09;-1.85;96.79
74081;SHT31;62438;52.228;6.864;2022-12-16T03:00:17;-1.82;97.13
74081;SHT31;62438;52.228;6.864;2022-12-16T03:02:29;-1.79;97.26
74081;SHT31;62438;52.228;6.864;2022-12-16T03:06:47;-1.82;97.31
74081;SHT31;62438;52.228;6.864;2022-12-16T03:08:53;-1.86;97.57
74081;SHT31;62438;52.228;6.864;2022-12-16T03:10:59;-1.87;97.65
74081;SHT31;62438;52.228;6.864;2022-12-16T03:13:04;-1.90;97.63
74081;SHT31;62438;52.228;6.864;2022-12-16T03:15:05;-1.89;97.57
74081;SHT31;62438;52.228;6.864;2022-12-16T03:17:07;-1.87;97.59
74081;SHT31;62438;52.228;6.864;2022-12-16T03:19:10;-1.86;97.43
74081;SHT31;62438;52.228;6.864;2022-12-16T03:21:12;-1.87;97.20
74081;SHT31;62438;52.228;6.864;2022-12-16T03:23:17;-1.87;97.17
74081;SHT31;62438;52.228;6.864;2022-12-16T03:25:20;-1.90;97.19
74081;SHT31;62438;52.228;6.864;2022-12-16T03:27:33;-1.86;97.37
74081;SHT31;62438;52.228;6.864;2022-12-16T03:29:52;-1.89;97.47
74081;SHT31;62438;52.228;6.864;2022-12-16T03:31:58;-1.89;97.12
74081;SHT31;62438;52.228;6.864;2022-12-16T03:36:22;-1.93;97.49
74081;SHT31;62438;52.228;6.864;2022-12-16T03:38:25;-1.89;97.24
74081;SHT31;62438;52.228;6.864;2022-12-16T03:40:27;-1.91;97.34
74081;SHT31;62438;52.228;6.864;2022-12-16T03:42:28;-1.93;97.17
74081;SHT31;62438;52.228;6.864;2022-12-16T03:44:30;-1.83;96.53
74081;SHT31;62438;52.228;6.864;2022-12-16T03:46:32;-1.83;96.54
74081;SHT31;62438;52.228;6.864;2022-12-16T03:48:33;-1.86;96.99
74081;SHT31;62438;52.228;6.864;2022-12-16T03:50:35;-1.87;97.01
74081;SHT31;62438;52.228;6.864;2022-12-16T03:52:36;-1.86;96.90
74081;SHT31;62438;52.228;6.864;2022-12-16T03:54:37;-1.83;97.04
74081;SHT31;62438;52.228;6.864;2022-12-16T03:56:37;-1.80;97.03
74081;SHT31;62438;52.228;6.864;2022-12-16T03:58:39;-1.82;97.03
74081;SHT31;62438;52.228;6.864;2022-12-16T04:00:40;-1.82;97.10
74081;SHT31;62438;52.228;6.864;2022-12-16T04:02:41;-1.85;97.09
74081;SHT31;62438;52.228;6.864;2022-12-16T04:04:41;-1.82;97.23
74081;SHT31;62438;52.228;6.864;2022-12-16T04:06:42;-1.80;97.23
74081;SHT31;62438;52.228;6.864;2022-12-16T04:08:46;-1.87;96.85
74081;SHT31;62438;52.228;6.864;2022-12-16T04:10:50;-1.89;96.91
74081;SHT31;62438;52.228;6.864;2022-12-16T04:13:12;-1.82;97.19
74081;SHT31;62438;52.228;6.864;2022-12-16T04:15:32;-1.86;97.16
74081;SHT31;62438;52.228;6.864;2022-12-16T04:17:51;-1.87;97.33
74081;SHT31;62438;52.228;6.864;2022-12-16T04:20:15;-1.91;97.49
74081;SHT31;62438;52.228;6.864;2022-12-16T04:22:36;-1.85;97.00
74081;SHT31;62438;52.228;6.864;2022-12-16T04:24:58;-1.89;97.14
74081;SHT31;62438;52.228;6.864;2022-12-16T04:26:59;-1.91;97.29
74081;SHT31;62438;52.228;6.864;2022-12-16T04:29:18;-1.86;97.48
74081;SHT31;62438;52.228;6.864;2022-12-16T04:31:19;-1.85;97.14
74081;SHT31;62438;52.228;6.864;2022-12-16T04:33:20;-1.85;97.08
74081;SHT31;62438;52.228;6.864;2022-12-16T04:35:42;-1.85;97.16
74081;SHT31;62438;52.228;6.864;2022-12-16T04:38:01;-1.79;97.39
74081;SHT31;62438;52.228;6.864;2022-12-16T04:40:20;-1.80;97.09
74081;SHT31;62438;52.228;6.864;2022-12-16T04:42:41;-1.89;97.67
74081;SHT31;62438;52.228;6.864;2022-12-16T04:45:00;-1.91;97.39
74081;SHT31;62438;52.228;6.864;2022-12-16T04:47:19;-1.89;97.27
74081;SHT31;62438;52.228;6.864;2022-12-16T04:49:58;-1.91;97.41
74081;SHT31;62438;52.228;6.864;2022-12-16T04:52:18;-1.87;97.68
74081;SHT31;62438;52.228;6.864;2022-12-16T04:54:37;-1.96;98.10
74081;SHT31;62438;52.228;6.864;2022-12-16T04:56:58;-1.93;98.23
74081;SHT31;62438;52.228;6.864;2022-12-16T04:59:18;-1.91;97.92
74081;SHT31;62438;52.228;6.864;2022-12-16T05:01:50;-1.91;98.15
74081;SHT31;62438;52.228;6.864;2022-12-16T05:04:10;-1.93;98.21
74081;SHT31;62438;52.228;6.864;2022-12-16T05:06:29;-1.94;98.39
74081;SHT31;62438;52.228;6.864;2022-12-16T05:08:48;-1.91;98.03
74081;SHT31;62438;52.228;6.864;2022-12-16T05:11:14;-1.94;98.26
74081;SHT31;62438;52.228;6.864;2022-12-16T05:13:33;-1.91;98.44
74081;SHT31;62438;52.228;6.864;2022-12-16T05:15:52;-1.94;98.25
74081;SHT31;62438;52.228;6.864;2022-12-16T05:18:14;-1.87;98.15
74081;SHT31;62438;52.228;6.864;2022-12-16T05:20:34;-1.93;97.88
74081;SHT31;62438;52.228;6.864;2022-12-16T05:22:56;-1.89;98.00
74081;SHT31;62438;52.228;6.864;2022-12-16T05:25:15;-1.87;98.25
74081;SHT31;62438;52.228;6.864;2022-12-16T05:27:35;-1.90;97.94
74081;SHT31;62438;52.228;6.864;2022-12-16T05:29:54;-1.87;97.98
74081;SHT31;62438;52.228;6.864;2022-12-16T05:32:15;-1.90;97.95
74081;SHT31;62438;52.228;6.864;2022-12-16T05:34:34;-1.83;97.83
74081;SHT31;62438;52.228;6.864;2022-12-16T05:36:53;-1.85;97.72
74081;SHT31;62438;52.228;6.864;2022-12-16T05:39:12;-1.86;97.81
74081;SHT31;62438;52.228;6.864;2022-12-16T05:41:31;-1.86;97.71
74081;SHT31;62438;52.228;6.864;2022-12-16T05:43:50;-1.87;97.63
74081;SHT31;62438;52.228;6.864;2022-12-16T05:46:09;-1.85;97.46
74081;SHT31;62438;52.228;6.864;2022-12-16T05:48:28;-1.85;97.51
74081;SHT31;62438;52.228;6.864;2022-12-16T05:50:47;-1.85;97.82
74081;SHT31;62438;52.228;6.864;2022-12-16T05:53:06;-1.86;97.91
74081;SHT31;62438;52.228;6.864;2022-12-16T05:55:25;-1.89;98.08
74081;SHT31;62438;52.228;6.864;2022-12-16T05:57:48;-1.89;98.14
74081;SHT31;62438;52.228;6.864;2022-12-16T06:00:07;-1.89;97.97
74081;SHT31;62438;52.228;6.864;2022-12-16T06:02:27;-1.89;98.28
74081;SHT31;62438;52.228;6.864;2022-12-16T06:04:46;-1.98;98.23
74081;SHT31;62438;52.228;6.864;2022-12-16T06:07:04;-2.03;98.59
74081;SHT31;62438;52.228;6.864;2022-12-16T06:09:23;-1.98;98.43
74081;SHT31;62438;52.228;6.864;2022-12-16T06:11:42;-2.04;98.48
74081;SHT31;62438;52.228;6.864;2022-12-16T06:14:01;-2.06;98.52
74081;SHT31;62438;52.228;6.864;2022-12-16T06:16:20;-2.03;98.58
74081;SHT31;62438;52.228;6.864;2022-12-16T06:18:39;-1.98;98.57
74081;SHT31;62438;52.228;6.864;2022-12-16T06:20:58;-1.97;98.39
74081;SHT31;62438;52.228;6.864;2022-12-16T06:23:17;-1.90;98.25
74081;SHT31;62438;52.228;6.864;2022-12-16T06:25:36;-1.96;98.63
74081;SHT31;62438;52.228;6.864;2022-12-16T06:27:55;-1.97;98.42
74081;SHT31;62438;52.228;6.864;2022-12-16T06:30:14;-2.00;98.52
74081;SHT31;62438;52.228;6.864;2022-12-16T06:32:33;-1.96;98.60
74081;SHT31;62438;52.228;6.864;2022-12-16T06:34:52;-1.93;98.42
74081;SHT31;62438;52.228;6.864;2022-12-16T06:37:11;-1.97;98.49
74081;SHT31;62438;52.228;6.864;2022-12-16T06:39:33;-1.96;98.75
74081;SHT31;62438;52.228;6.864;2022-12-16T06:41:52;-1.94;98.64
74081;SHT31;62438;52.228;6.864;2022-12-16T06:44:11;-1.89;98.42
74081;SHT31;62438;52.228;6.864;2022-12-16T06:46:30;-1.89;98.49
74081;SHT31;62438;52.228;6.864;2022-12-16T06:48:49;-1.87;98.42
74081;SHT31;62438;52.228;6.864;2022-12-16T06:51:08;-1.91;98.49
74081;SHT31;62438;52.228;6.864;2022-12-16T06:53:27;-1.89;98.48
74081;SHT31;62438;52.228;6.864;2022-12-16T06:55:46;-1.80;98.30
74081;SHT31;62438;52.228;6.864;2022-12-16T06:58:05;-1.83;98.05
74081;SHT31;62438;52.228;6.864;2022-12-16T07:00:25;-1.87;97.95
74081;SHT31;62438;52.228;6.864;2022-12-16T07:02:44;-1.87;98.01
74081;SHT31;62438;52.228;6.864;2022-12-16T07:05:03;-1.91;98.24
74081;SHT31;62438;52.228;6.864;2022-12-16T07:07:22;-1.87;98.22
74081;SHT31;62438;52.228;6.864;2022-12-16T07:09:41;-1.94;98.52
74081;SHT31;62438;52.228;6.864;2022-12-16T07:12:00;-1.86;98.42
74081;SHT31;62438;52.228;6.864;2022-12-16T07:14:23;-1.91;98.16
74081;SHT31;62438;52.228;6.864;2022-12-16T07:16:42;-1.87;98.41
74081;SHT31;62438;52.228;6.864;2022-12-16T07:19:01;-1.87;98.15
74081;SHT31;62438;52.228;6.864;2022-12-16T07:21:20;-1.89;98.61
74081;SHT31;62438;52.228;6.864;2022-12-16T07:23:39;-1.86;98.36
74081;SHT31;62438;52.228;6.864;2022-12-16T07:25:58;-1.87;98.65
74081;SHT31;62438;52.228;6.864;2022-12-16T07:28:17;-1.91;98.76
74081;SHT31;62438;52.228;6.864;2022-12-16T07:30:36;-1.86;98.76
74081;SHT31;62438;52.228;6.864;2022-12-16T07:32:55;-1.82;98.56
74081;SHT31;62438;52.228;6.864;2022-12-16T07:35:14;-1.82;98.90
74081;SHT31;62438;52.228;6.864;2022-12-16T07:37:33;-1.87;98.96
74081;SHT31;62438;52.228;6.864;2022-12-16T07:39:52;-1.86;99.03
74081;SHT31;62438;52.228;6.864;2022-12-16T07:42:10;-1.83;99.00
74081;SHT31;62438;52.228;6.864;2022-12-16T07:44:29;-1.86;98.84
74081;SHT31;62438;52.228;6.864;2022-12-16T07:46:48;-1.86;98.83
74081;SHT31;62438;52.228;6.864;2022-12-16T07:49:07;-1.87;99.14
74081;SHT31;62438;52.228;6.864;2022-12-16T07:51:26;-1.87;99.38
74081;SHT31;62438;52.228;6.864;2022-12-16T07:53:45;-1.90;99.67
74081;SHT31;62438;52.228;6.864;2022-12-16T07:56:04;-1.86;99.74
74081;SHT31;62438;52.228;6.864;2022-12-16T07:58:24;-1.87;99.78
74081;SHT31;62438;52.228;6.864;2022-12-16T08:00:43;-1.83;99.71
74081;SHT31;62438;52.228;6.864;2022-12-16T08:03:02;-1.82;99.62
74081;SHT31;62438;52.228;6.864;2022-12-16T08:05:21;-1.83;99.71
74081;SHT31;62438;52.228;6.864;2022-12-16T08:07:40;-1.83;99.74
74081;SHT31;62438;52.228;6.864;2022-12-16T08:09:59;-1.82;99.80
74081;SHT31;62438;52.228;6.864;2022-12-16T08:12:18;-1.73;99.88
74081;SHT31;62438;52.228;6.864;2022-12-16T08:14:37;-1.72;99.82
74081;SHT31;62438;52.228;6.864;2022-12-16T08:16:56;-1.73;99.63
74081;SHT31;62438;52.228;6.864;2022-12-16T08:19:23;-1.72;99.56
74081;SHT31;62438;52.228;6.864;2022-12-16T08:21:42;-1.73;99.67
74081;SHT31;62438;52.228;6.864;2022-12-16T08:24:01;-1.73;99.60
74081;SHT31;62438;52.228;6.864;2022-12-16T08:26:20;-1.73;99.50
74081;SHT31;62438;52.228;6.864;2022-12-16T08:28:39;-1.75;99.63
74081;SHT31;62438;52.228;6.864;2022-12-16T08:30:58;-1.72;99.55
74081;SHT31;62438;52.228;6.864;2022-12-16T08:33:17;-1.66;99.54
74081;SHT31;62438;52.228;6.864;2022-12-16T08:35:36;-1.60;99.62
74081;SHT31;62438;52.228;6.864;2022-12-16T08:37:55;-1.66;99.67
74081;SHT31;62438;52.228;6.864;2022-12-16T08:40:15;-1.63;99.98
74081;SHT31;62438;52.228;6.864;2022-12-16T08:42:34;-1.65;99.99
74081;SHT31;62438;52.228;6.864;2022-12-16T08:45:07;-1.60;99.99
74081;SHT31;62438;52.228;6.864;2022-12-16T08:47:26;-1.63;99.99
74081;SHT31;62438;52.228;6.864;2022-12-16T08:49:45;-1.68;99.99
74081;SHT31;62438;52.228;6.864;2022-12-16T08:52:04;-1.69;99.99
74081;SHT31;62438;52.228;6.864;2022-12-16T08:54:23;-1.60;99.99
74081;SHT31;62438;52.228;6.864;2022-12-16T08:56:45;-1.55;99.99
74081;SHT31;62438;52.228;6.864;2022-12-16T08:59:04;-1.54;99.97
74081;SHT31;62438;52.228;6.864;2022-12-16T09:01:24;-1.54;99.99
74081;SHT31;62438;52.228;6.864;2022-12-16T09:03:43;-1.47;99.74
74081;SHT31;62438;52.228;6.864;2022-12-16T09:06:02;-1.38;99.55
74081;SHT31;62438;52.228;6.864;2022-12-16T09:08:20;-1.39;99.38
74081;SHT31;62438;52.228;6.864;2022-12-16T09:10:39;-1.34;99.07
74081;SHT31;62438;52.228;6.864;2022-12-16T09:13:12;-1.34;99.12
74081;SHT31;62438;52.228;6.864;2022-12-16T09:15:31;-1.30;98.88
74081;SHT31;62438;52.228;6.864;2022-12-16T09:17:54;-1.27;98.53
74081;SHT31;62438;52.228;6.864;2022-12-16T09:20:14;-1.32;98.49
74081;SHT31;62438;52.228;6.864;2022-12-16T09:22:33;-1.24;98.40
74081;SHT31;62438;52.228;6.864;2022-12-16T09:24:52;-1.12;98.22
74081;SHT31;62438;52.228;6.864;2022-12-16T09:27:14;-1.10;97.78
74081;SHT31;62438;52.228;6.864;2022-12-16T09:29:33;-1.11;97.87
74081;SHT31;62438;52.228;6.864;2022-12-16T09:31:52;-1.12;98.05
74081;SHT31;62438;52.228;6.864;2022-12-16T09:34:11;-0.97;97.72
74081;SHT31;62438;52.228;6.864;2022-12-16T09:36:30;-0.79;96.97
74081;SHT31;62438;52.228;6.864;2022-12-16T09:38:49;-0.56;96.58
74081;SHT31;62438;52.228;6.864;2022-12-16T09:51:51;-0.35;95.00
74081;SHT31;62438;52.228;6.864;2022-12-16T09:54:15;-0.46;95.32
74081;SHT31;62438;52.228;6.864;2022-12-16T09:56:37;-0.48;95.48
74081;SHT31;62438;52.228;6.864;2022-12-16T09:58:59;-0.46;96.09
74081;SHT31;62438;52.228;6.864;2022-12-16T10:01:19;-0.38;95.59
74081;SHT31;62438;52.228;6.864;2022-12-16T10:03:40;-0.35;95.43
74081;SHT31;62438;52.228;6.864;2022-12-16T10:06:08;-0.33;95.55
74081;SHT31;62438;52.228;6.864;2022-12-16T10:08:47;-0.23;95.21
74081;SHT31;62438;52.228;6.864;2022-12-16T10:11:14;-0.28;95.77
74081;SHT31;62438;52.228;6.864;2022-12-16T10:13:51;-0.14;95.35
74081;SHT31;62438;52.228;6.864;2022-12-16T10:16:36;-0.26;94.80
74081;SHT31;62438;52.228;6.864;2022-12-16T10:21:33;-0.26;94.90
74081;SHT31;62438;52.228;6.864;2022-12-16T10:23:59;-0.18;94.42
74081;SHT31;62438;52.228;6.864;2022-12-16T10:29:18;-0.45;95.47
74081;SHT31;62438;52.228;6.864;2022-12-16T10:31:45;-0.40;95.60
74081;SHT31;62438;52.228;6.864;2022-12-16T10:34:14;-0.32;95.27
74081;SHT31;62438;52.228;6.864;2022-12-16T10:36:36;-0.42;95.36
74081;SHT31;62438;52.228;6.864;2022-12-16T10:39:33;-0.46;95.27
74081;SHT31;62438;52.228;6.864;2022-12-16T10:41:54;-0.35;95.95
74081;SHT31;62438;52.228;6.864;2022-12-16T10:46:44;-0.31;95.58
74081;SHT31;62438;52.228;6.864;2022-12-16T10:49:03;-0.32;96.11
74081;SHT31;62438;52.228;6.864;2022-12-16T10:51:25;-0.43;96.08
74081;SHT31;62438;52.228;6.864;2022-12-16T10:53:45;-0.42;96.08
74081;SHT31;62438;52.228;6.864;2022-12-16T10:56:41;-0.39;96.53
74081;SHT31;62438;52.228;6.864;2022-12-16T10:59:06;-0.46;96.29
74081;SHT31;62438;52.228;6.864;2022-12-16T11:01:27;-0.35;96.46
74081;SHT31;62438;52.228;6.864;2022-12-16T11:03:46;-0.56;96.43
74081;SHT31;62438;52.228;6.864;2022-12-16T11:06:05;-0.46;96.64
74081;SHT31;62438;52.228;6.864;2022-12-16T11:08:32;-0.43;96.47
74081;SHT31;62438;52.228;6.864;2022-12-16T11:10:51;-0.52;96.87
74081;SHT31;62438;52.228;6.864;2022-12-16T11:16:05;-0.52;96.47
74081;SHT31;62438;52.228;6.864;2022-12-16T11:18:24;-0.49;96.80
74081;SHT31;62438;52.228;6.864;2022-12-16T11:20:43;-0.45;96.98
74081;SHT31;62438;52.228;6.864;2022-12-16T11:23:17;-0.42;96.99
74081;SHT31;62438;52.228;6.864;2022-12-16T11:25:36;-0.22;96.23
74081;SHT31;62438;52.228;6.864;2022-12-16T11:28:25;-0.26;96.51
74081;SHT31;62438;52.228;6.864;2022-12-16T11:30:51;-0.25;96.30
74081;SHT31;62438;52.228;6.864;2022-12-16T11:33:22;-0.23;96.58
74081;SHT31;62438;52.228;6.864;2022-12-16T11:35:48;-0.35;96.42
74081;SHT31;62438;52.228;6.864;2022-12-16T11:38:55;-0.21;96.40
74081;SHT31;62438;52.228;6.864;2022-12-16T11:40:55;-0.18;96.00
74081;SHT31;62438;52.228;6.864;2022-12-16T11:43:16;-0.12;95.62
74081;SHT31;62438;52.228;6.864;2022-12-16T11:45:37;-0.12;96.23
74081;SHT31;62438;52.228;6.864;2022-12-16T11:48:11;-0.12;95.80
74081;SHT31;62438;52.228;6.864;2022-12-16T11:50:37;-0.08;96.24
74081;SHT31;62438;52.228;6.864;2022-12-16T11:52:59;-0.14;95.71
74081;SHT31;62438;52.228;6.864;2022-12-16T11:55:23;-0.01;95.95
74081;SHT31;62438;52.228;6.864;2022-12-16T11:57:59;-0.04;96.21
74081;SHT31;62438;52.228;6.864;2022-12-16T12:00:28;0.09;95.76
74081;SHT31;62438;52.228;6.864;2022-12-16T12:05:12;0.03;95.30
74081;SHT31;62438;52.228;6.864;2022-12-16T12:13:21;-0.07;96.26
74081;SHT31;62438;52.228;6.864;2022-12-16T12:15:59;-0.07;96.11
74081;SHT31;62438;52.228;6.864;2022-12-16T12:21:15;0.07;96.20
74081;SHT31;62438;52.228;6.864;2022-12-16T12:24:04;0.20;95.52
74081;SHT31;62438;52.228;6.864;2022-12-16T12:26:31;0.17;95.14
74081;SHT31;62438;52.228;6.864;2022-12-16T12:29:06;0.27;94.98
74081;SHT31;62438;52.228;6.864;2022-12-16T12:39:43;0.33;95.05
74081;SHT31;62438;52.228;6.864;2022-12-16T12:47:50;0.34;94.91
74081;SHT31;62438;52.228;6.864;2022-12-16T12:50:21;0.47;94.45
74081;SHT31;62438;52.228;6.864;2022-12-16T12:53:23;0.50;94.73
74081;SHT31;62438;52.228;6.864;2022-12-16T12:58:20;0.56;94.88
74081;SHT31;62438;52.228;6.864;2022-12-16T13:00:43;0.53;94.46
74081;SHT31;62438;52.228;6.864;2022-12-16T13:05:36;0.64;93.13
74081;SHT31;62438;52.228;6.864;2022-12-16T13:11:10;0.69;94.20
74081;SHT31;62438;52.228;6.864;2022-12-16T13:13:32;0.60;95.17
74081;SHT31;62438;52.228;6.864;2022-12-16T13:15:51;0.56;94.54
74081;SHT31;62438;52.228;6.864;2022-12-16T13:18:18;0.46;95.03
74081;SHT31;62438;52.228;6.864;2022-12-16T13:20:38;0.44;95.40
74081;SHT31;62438;52.228;6.864;2022-12-16T13:22:56;0.33;95.43
74081;SHT31;62438;52.228;6.864;2022-12-16T13:27:56;0.16;95.66
74081;SHT31;62438;52.228;6.864;2022-12-16T13:30:22;0.14;96.27
74081;SHT31;62438;52.228;6.864;2022-12-16T13:32:53;0.23;95.99
74081;SHT31;62438;52.228;6.864;2022-12-16T13:35:16;0.17;95.84
74081;SHT31;62438;52.228;6.864;2022-12-16T13:37:35;0.29;95.54
74081;SHT31;62438;52.228;6.864;2022-12-16T13:42:48;0.23;96.46
74081;SHT31;62438;52.228;6.864;2022-12-16T13:50:42;0.23;96.46
74081;SHT31;62438;52.228;6.864;2022-12-16T13:53:03;0.23;96.32
74081;SHT31;62438;52.228;6.864;2022-12-16T13:57:46;0.23;96.62
74081;SHT31;62438;52.228;6.864;2022-12-16T14:00:17;0.19;96.62
74081;SHT31;62438;52.228;6.864;2022-12-16T14:02:41;0.16;96.73
74081;SHT31;62438;52.228;6.864;2022-12-16T14:05:02;0.14;96.78
74081;SHT31;62438;52.228;6.864;2022-12-16T14:07:24;0.13;96.82
74081;SHT31;62438;52.228;6.864;2022-12-16T14:09:47;0.17;96.99
74081;SHT31;62438;52.228;6.864;2022-12-16T14:12:15;0.21;96.89
74081;SHT31;62438;52.228;6.864;2022-12-16T14:14:46;0.26;96.96
74081;SHT31;62438;52.228;6.864;2022-12-16T14:17:12;0.23;96.58
74081;SHT31;62438;52.228;6.864;2022-12-16T14:24:45;0.20;97.10
74081;SHT31;62438;52.228;6.864;2022-12-16T14:27:10;0.33;96.65
74081;SHT31;62438;52.228;6.864;2022-12-16T14:29:33;0.30;96.21
74081;SHT31;62438;52.228;6.864;2022-12-16T14:31:53;0.29;96.46
74081;SHT31;62438;52.228;6.864;2022-12-16T14:34:21;0.17;96.59
74081;SHT31;62438;52.228;6.864;2022-12-16T14:36:40;0.20;96.94
74081;SHT31;62438;52.228;6.864;2022-12-16T14:38:59;0.16;96.96
74081;SHT31;62438;52.228;6.864;2022-12-16T14:41:21;0.20;96.69
74081;SHT31;62438;52.228;6.864;2022-12-16T14:43:42;0.16;96.99
74081;SHT31;62438;52.228;6.864;2022-12-16T14:46:01;0.16;97.05
74081;SHT31;62438;52.228;6.864;2022-12-16T14:48:23;0.11;97.06
74081;SHT31;62438;52.228;6.864;2022-12-16T14:50:42;0.10;97.25
74081;SHT31;62438;52.228;6.864;2022-12-16T14:53:11;0.14;97.41
74081;SHT31;62438;52.228;6.864;2022-12-16T14:55:33;0.20;97.14
74081;SHT31;62438;52.228;6.864;2022-12-16T14:58:12;0.16;97.14
74081;SHT31;62438;52.228;6.864;2022-12-16T15:00:32;0.14;97.39
74081;SHT31;62438;52.228;6.864;2022-12-16T15:05:30;0.09;97.69
74081;SHT31;62438;52.228;6.864;2022-12-16T15:07:50;0.09;97.55
74081;SHT31;62438;52.228;6.864;2022-12-16T15:10:12;0.06;97.58
74081;SHT31;62438;52.228;6.864;2022-12-16T15:12:38;0.06;97.77
74081;SHT31;62438;52.228;6.864;2022-12-16T15:14:57;0.03;97.95
74081;SHT31;62438;52.228;6.864;2022-12-16T15:17:32;0.07;97.99
74081;SHT31;62438;52.228;6.864;2022-12-16T15:19:56;0.05;97.94
74081;SHT31;62438;52.228;6.864;2022-12-16T15:22:15;0.02;97.95
74081;SHT31;62438;52.228;6.864;2022-12-16T15:24:36;0.02;97.90
74081;SHT31;62438;52.228;6.864;2022-12-16T15:29:39;0.05;98.18
74081;SHT31;62438;52.228;6.864;2022-12-16T15:31:58;0.00;98.02
74081;SHT31;62438;52.228;6.864;2022-12-16T15:36:46;0.05;98.23
74081;SHT31;62438;52.228;6.864;2022-12-16T15:39:34;0.06;98.19
74081;SHT31;62438;52.228;6.864;2022-12-16T15:41:50;0.09;97.92
74081;SHT31;62438;52.228;6.864;2022-12-16T15:46:46;0.13;97.76
74081;SHT31;62438;52.228;6.864;2022-12-16T15:49:15;0.13;97.79
74081;SHT31;62438;52.228;6.864;2022-12-16T15:51:44;0.10;98.06
74081;SHT31;62438;52.228;6.864;2022-12-16T15:54:04;0.10;98.07
74081;SHT31;62438;52.228;6.864;2022-12-16T15:56:23;0.11;98.00
74081;SHT31;62438;52.228;6.864;2022-12-16T15:58:42;0.10;98.28
74081;SHT31;62438;52.228;6.864;2022-12-16T16:01:02;0.13;98.13
74081;SHT31;62438;52.228;6.864;2022-12-16T16:03:27;0.07;98.34
74081;SHT31;62438;52.228;6.864;2022-12-16T16:05:46;0.03;98.35
74081;SHT31;62438;52.228;6.864;2022-12-16T16:08:08;0.03;98.62
74081;SHT31;62438;52.228;6.864;2022-12-16T16:10:27;0.03;98.51
74081;SHT31;62438;52.228;6.864;2022-12-16T16:12:46;0.03;98.39
74081;SHT31;62438;52.228;6.864;2022-12-16T16:15:08;0.06;98.49
74081;SHT31;62438;52.228;6.864;2022-12-16T16:17:27;0.00;98.53